Time;durP1;ratioP1;P1;durP2;ratioP2;P2;SDS_P1;SDS_P2;PMS_P1;PMS_P2;Temp;Humidity;BMP_temperature;BMP_pressure;BME280_temperature;BME280_humidity;BME280_pressure;Samples;Min_cycle;Max_cycle;Signal;HPM_P1;HPM_P2
2023/06/18 00:01:51;;;;;;;5.75;3.60;;;;;;;18.35;49.97;151893.94;5061146;28;20218;-69
2023/06/18 00:04:16;;;;;;;10.48;4.03;;;;;;;18.43;49.76;151914.59;5063147;28;20021;-68
2023/06/18 00:06:42;;;;;;;6.95;4.07;;;;;;;18.47;49.50;151923.63;5061443;28;20029;-69
2023/06/18 00:09:07;;;;;;;10.88;3.70;;;;;;;18.46;49.39;151922.31;5063217;28;20049;-69
2023/06/18 00:11:33;;;;;;;9.48;4.45;;;;;;;18.45;49.40;151918.44;5061681;28;20036;-70
2023/06/18 00:13:59;;;;;;;5.95;3.75;;;;;;;18.25;48.28;151868.16;5055137;28;20017;-67
2023/06/18 00:16:24;;;;;;;8.60;4.03;;;;;;;18.23;48.49;151863.00;5062631;28;20127;-67
2023/06/18 00:18:50;;;;;;;11.35;4.03;;;;;;;18.19;48.37;151852.69;5062794;28;20033;-67
2023/06/18 00:21:16;;;;;;;4.72;3.67;;;;;;;18.25;48.41;151869.41;5062616;28;20025;-67
2023/06/18 00:23:42;;;;;;;7.05;4.03;;;;;;;18.14;48.87;151839.78;5062406;28;20025;-68
2023/06/18 00:26:07;;;;;;;8.75;4.07;;;;;;;17.74;49.24;151740.44;5062622;28;20032;-69
2023/06/18 00:28:33;;;;;;;7.30;4.05;;;;;;;17.96;48.47;151794.63;5062281;28;20027;-69
2023/06/18 00:30:59;;;;;;;8.90;4.47;;;;;;;17.87;48.29;151772.66;5062897;28;20032;-70
2023/06/18 00:33:24;;;;;;;6.07;3.92;;;;;;;18.08;49.19;151826.88;5064932;28;20032;-69
2023/06/18 00:35:56;;;;;;;5.95;3.80;;;;;;;18.11;49.15;151833.31;5082191;28;20103;-68
2023/06/18 00:38:28;;;;;;;5.53;3.78;;;;;;;18.26;49.12;151870.75;5067155;28;20033;-69
2023/06/18 00:40:54;;;;;;;;;;;;;;;18.18;49.51;151850.09;5067337;28;20078;-68
2023/06/18 00:43:20;;;;;;;7.55;4.30;;;;;;;18.07;49.29;151824.31;5066928;28;20124;-69
2023/06/18 00:45:46;;;;;;;5.85;3.97;;;;;;;18.02;49.30;151811.41;5065559;28;20025;-69
2023/06/18 00:48:17;;;;;;;10.23;4.75;;;;;;;18.10;49.32;151830.78;5065584;28;20051;-70
2023/06/18 00:50:42;;;;;;;7.10;4.53;;;;;;;17.94;49.30;151790.75;5066797;28;20037;-69
2023/06/18 00:53:13;;;;;;;6.03;4.25;;;;;;;18.09;49.79;151828.19;5066836;28;20032;-69
2023/06/18 00:55:41;;;;;;;6.55;4.07;;;;;;;18.14;50.18;151839.78;5066608;28;20025;-69
2023/06/18 00:58:06;;;;;;;8.23;4.00;;;;;;;18.14;49.69;151839.78;5066368;28;20031;-69
2023/06/18 01:00:34;;;;;;;7.57;4.60;;;;;;;18.15;49.80;151842.38;5048470;28;20021;-70
2023/06/18 01:03:06;;;;;;;7.72;4.20;;;;;;;18.09;49.50;151829.44;5078483;28;20029;-70
2023/06/18 01:05:33;;;;;;;5.95;3.90;;;;;;;18.08;49.19;151825.59;5066644;28;20033;-68
2023/06/18 01:08:00;;;;;;;6.88;3.90;;;;;;;17.92;48.89;151785.63;5064897;28;20053;-69
2023/06/18 01:10:29;;;;;;;7.10;4.20;;;;;;;17.99;49.10;151803.69;5066134;28;20301;-69
2023/06/18 01:12:57;;;;;;;8.30;4.45;;;;;;;18.10;49.34;151832.03;5066148;28;20063;-68
2023/06/18 01:15:26;;;;;;;9.77;4.38;;;;;;;17.99;49.64;151803.69;5066085;28;20059;-70
2023/06/18 01:17:56;;;;;;;10.55;4.90;;;;;;;17.84;50.04;151766.25;5065942;28;20033;-70
2023/06/18 01:20:25;;;;;;;8.30;4.00;;;;;;;17.89;49.93;151777.84;5066131;28;20075;-69
2023/06/18 01:23:00;;;;;;;6.72;4.43;;;;;;;17.79;50.34;151752.06;5065650;28;20052;-70
2023/06/18 01:25:27;;;;;;;7.70;4.55;;;;;;;17.78;49.97;151750.75;5066088;28;20028;-71
2023/06/18 01:27:54;;;;;;;10.25;4.30;;;;;;;17.79;50.21;151753.34;5064460;28;20328;-70
2023/06/18 01:30:20;;;;;;;7.18;4.60;;;;;;;17.59;50.42;151704.34;5065796;28;20052;-69
2023/06/18 01:32:46;;;;;;;10.77;4.57;;;;;;;17.80;50.35;151754.63;5065192;28;20318;-69
2023/06/18 01:35:15;;;;;;;8.95;4.20;;;;;;;17.81;50.31;151757.22;5065557;28;20048;-70
2023/06/18 01:38:05;;;;;;;8.40;4.88;;;;;;;17.75;50.24;151744.31;5065712;28;20095;-69
2023/06/18 01:40:37;;;;;;;6.22;3.85;;;;;;;17.67;49.96;151723.72;5065261;28;20078;-70
2023/06/18 01:43:05;;;;;;;8.40;3.85;;;;;;;17.83;50.12;151762.34;5065530;28;20033;-70
2023/06/18 01:45:40;;;;;;;8.70;5.00;;;;;;;17.75;50.66;151744.31;5065168;28;20217;-70
2023/06/18 01:48:08;;;;;;;7.50;4.13;;;;;;;17.82;50.27;151759.81;5045381;28;20068;-68
2023/06/18 01:50:36;;;;;;;11.00;5.05;;;;;;;17.77;50.64;151748.16;5060074;28;20040;-71
2023/06/18 01:53:04;;;;;;;7.70;4.50;;;;;;;17.90;50.68;151781.75;5065398;28;20076;-69
2023/06/18 01:55:33;;;;;;;10.27;4.50;;;;;;;17.88;50.72;151775.25;5064889;28;20029;-68
2023/06/18 01:58:00;;;;;;;7.85;3.78;;;;;;;17.85;50.39;151768.81;5065543;28;20039;-70
2023/06/18 02:00:26;;;;;;;8.60;4.70;;;;;;;17.60;50.50;151705.66;5065440;28;20036;-70
2023/06/18 02:02:51;;;;;;;6.25;3.83;;;;;;;17.65;50.44;151718.53;5064791;28;20270;-70
2023/06/18 02:05:18;;;;;;;4.80;3.80;;;;;;;17.76;50.52;151746.88;5063936;28;20036;-70
2023/06/18 02:07:44;;;;;;;7.03;4.40;;;;;;;17.83;50.42;151762.34;5064856;28;20068;-71
2023/06/18 02:10:10;;;;;;;7.43;4.57;;;;;;;17.91;50.94;151783.03;5065272;28;20040;-71
2023/06/18 02:12:35;;;;;;;10.00;4.78;;;;;;;17.85;50.03;151768.81;5064727;28;20138;-71
2023/06/18 02:15:01;;;;;;;7.13;4.18;;;;;;;17.93;49.28;151789.50;5064840;28;20029;-71
2023/06/18 02:17:28;;;;;;;9.00;3.92;;;;;;;17.93;49.18;151788.22;5047487;28;20063;-70
2023/06/18 02:19:54;;;;;;;11.32;4.07;;;;;;;18.00;49.33;151806.28;5065826;28;20024;-70
2023/06/18 02:22:20;;;;;;;7.03;3.88;;;;;;;18.05;48.93;151819.13;5063785;28;20202;-71
2023/06/18 02:24:45;;;;;;;5.60;4.05;;;;;;;18.26;49.27;151870.75;5064898;28;20055;-70
2023/06/18 02:27:11;;;;;;;8.75;3.85;;;;;;;17.89;49.36;151779.13;5064476;28;20095;-69
2023/06/18 02:29:37;;;;;;;6.55;3.97;;;;;;;18.07;48.87;151824.31;5064418;28;20033;-69
2023/06/18 02:32:03;;;;;;;6.25;3.65;;;;;;;18.22;48.24;151860.41;5064935;28;20020;-70
2023/06/18 02:34:28;;;;;;;5.40;3.63;;;;;;;18.15;49.58;151843.66;5065133;28;20028;-68
2023/06/18 02:36:54;;;;;;;8.00;3.80;;;;;;;17.92;49.27;151786.91;5063148;28;20028;-69
2023/06/18 02:39:21;;;;;;;8.30;3.35;;;;;;;17.85;49.32;151767.53;5064448;28;20305;-69
2023/06/18 02:41:46;;;;;;;8.95;3.78;;;;;;;17.98;48.87;151801.09;5064216;28;20033;-69
2023/06/18 02:44:12;;;;;;;8.38;3.97;;;;;;;18.07;49.34;151824.31;5064430;28;20020;-69
2023/06/18 02:46:38;;;;;;;8.80;3.78;;;;;;;17.83;49.24;151763.66;5060808;28;20024;-69
2023/06/18 02:49:03;;;;;;;10.80;4.00;;;;;;;18.02;49.20;151811.41;5050311;28;20063;-70
2023/06/18 02:51:29;;;;;;;8.70;4.05;;;;;;;17.85;48.16;151767.53;5065471;28;20055;-71
2023/06/18 02:53:54;;;;;;;7.20;4.40;;;;;;;17.83;48.75;151762.34;5064093;28;20028;-70
2023/06/18 02:56:21;;;;;;;9.13;3.92;;;;;;;17.93;48.97;151788.22;5063453;28;20040;-71
2023/06/18 02:58:51;;;;;;;7.78;3.83;;;;;;;17.94;49.49;151790.75;5064264;28;20029;-71
2023/06/18 03:01:19;;;;;;;7.30;3.88;;;;;;;18.14;48.76;151841.03;5064447;28;20100;-70
2023/06/18 03:03:44;;;;;;;12.18;4.22;;;;;;;17.99;48.10;151802.41;5063704;28;20134;-70
2023/06/18 03:06:10;;;;;;;5.20;3.58;;;;;;;17.88;48.77;151776.53;5062828;28;20021;-70
2023/06/18 03:08:36;;;;;;;9.45;4.05;;;;;;;17.99;48.41;151802.41;5063688;28;20033;-71
2023/06/18 03:11:01;;;;;;;7.63;3.95;;;;;;;17.98;48.37;151801.09;5064033;28;20035;-70
2023/06/18 03:13:27;;;;;;;7.38;3.83;;;;;;;17.94;48.94;151790.75;5064144;28;20238;-71
2023/06/18 03:15:52;;;;;;;7.68;4.03;;;;;;;18.10;48.55;151832.03;5064053;28;20051;-71
2023/06/18 03:18:18;;;;;;;5.82;3.90;;;;;;;18.28;48.34;151875.88;5064008;28;20036;-70
2023/06/18 03:20:43;;;;;;;6.85;4.13;;;;;;;17.99;48.41;151803.69;5063447;28;20035;-69
2023/06/18 03:23:09;;;;;;;8.70;3.72;;;;;;;18.23;49.04;151863.00;5063886;28;20029;-70
2023/06/18 03:25:35;;;;;;;7.35;3.83;;;;;;;18.18;47.88;151850.09;5063695;28;20036;-70
2023/06/18 03:28:00;;;;;;;7.20;3.95;;;;;;;18.28;48.71;151877.19;5063919;28;20039;-70
2023/06/18 03:30:26;;;;;;;7.10;4.00;;;;;;;18.43;48.89;151914.59;5063798;28;20025;-71
2023/06/18 03:32:55;;;;;;;5.63;3.72;;;;;;;18.49;48.68;151928.78;5063980;28;20029;-70
2023/06/18 03:35:21;;;;;;;7.10;4.05;;;;;;;18.59;48.74;151953.28;5063656;28;20025;-70
2023/06/18 03:37:47;;;;;;;6.55;4.05;;;;;;;18.44;48.31;151915.84;5063276;28;20305;-69
2023/06/18 03:40:13;;;;;;;7.72;3.97;;;;;;;18.45;48.40;151918.44;5063186;28;20028;-69
2023/06/18 03:42:38;;;;;;;6.95;3.67;;;;;;;18.44;47.80;151917.16;5063169;28;20025;-69
2023/06/18 03:45:05;;;;;;;8.75;3.97;;;;;;;18.51;47.84;151933.91;5063120;28;20032;-70
2023/06/18 03:47:31;;;;;;;5.68;3.47;;;;;;;18.74;47.50;151992.00;5063119;28;20392;-70
2023/06/18 03:49:56;;;;;;;5.70;3.30;;;;;;;18.66;46.67;151971.34;5062720;28;20036;-70
2023/06/18 03:52:22;;;;;;;7.85;3.55;;;;;;;18.62;46.14;151962.28;5062925;28;20028;-69
2023/06/18 03:54:47;;;;;;;5.68;3.45;;;;;;;18.55;46.64;151942.97;5062901;28;20236;-69
2023/06/18 03:57:13;;;;;;;6.50;3.88;;;;;;;18.51;45.96;151933.91;5063213;28;20310;-70
2023/06/18 03:59:38;;;;;;;5.75;3.67;;;;;;;18.46;46.73;151922.31;5061824;28;20025;-72
2023/06/18 04:02:05;;;;;;;9.07;3.65;;;;;;;18.48;46.45;151926.19;5062951;28;20033;-68
2023/06/18 04:04:30;;;;;;;6.60;3.40;;;;;;;18.62;46.49;151961.03;5062420;28;20036;-69
2023/06/18 04:06:56;;;;;;;8.10;3.08;;;;;;;18.77;46.02;151998.44;5061468;28;20083;-68
2023/06/18 04:09:21;;;;;;;9.63;3.75;;;;;;;18.80;46.07;152006.19;5063265;28;20350;-68
2023/06/18 04:11:47;;;;;;;6.78;3.97;;;;;;;18.79;46.71;152004.88;5062631;28;20040;-68
2023/06/18 04:14:13;;;;;;;9.63;3.97;;;;;;;19.10;46.85;152081.06;5063254;28;20021;-69
2023/06/18 04:16:40;;;;;;;8.23;3.40;;;;;;;19.11;45.91;152084.94;5062550;28;20031;-67
2023/06/18 04:19:05;;;;;;;8.55;3.78;;;;;;;19.23;46.86;152114.59;5062781;28;20032;-69
2023/06/18 04:21:31;;;;;;;6.55;3.40;;;;;;;19.40;46.77;152157.19;5062654;28;20021;-68
2023/06/18 04:23:57;;;;;;;7.22;3.40;;;;;;;19.27;46.12;152123.66;5062916;28;20028;-68
2023/06/18 04:26:22;;;;;;;7.68;3.88;;;;;;;19.35;45.44;152144.28;5062614;28;20049;-70
2023/06/18 04:28:50;;;;;;;4.22;3.15;;;;;;;19.48;45.06;152177.84;5062711;28;20048;-68
2023/06/18 04:31:15;;;;;;;9.98;3.50;;;;;;;19.66;45.00;152221.75;5062605;28;20346;-69
2023/06/18 04:33:41;;;;;;;5.80;3.53;;;;;;;19.60;44.29;152206.25;5062641;28;20025;-70
2023/06/18 04:36:07;;;;;;;6.40;3.05;;;;;;;19.75;44.88;152245.00;5062961;28;20094;-70
2023/06/18 04:38:32;;;;;;;9.40;3.58;;;;;;;19.83;44.72;152264.38;5062315;28;20335;-69
2023/06/18 04:40:58;;;;;;;5.88;3.30;;;;;;;20.00;44.33;152307.00;5062694;28;20025;-69
2023/06/18 04:43:23;;;;;;;6.78;3.72;;;;;;;20.04;43.94;152316.00;5062408;28;20079;-69
2023/06/18 04:45:49;;;;;;;6.72;3.75;;;;;;;20.12;43.83;152336.69;5062780;28;20025;-70
2023/06/18 04:48:14;;;;;;;8.68;3.95;;;;;;;19.92;44.42;152287.59;5062885;28;20073;-69
2023/06/18 04:50:41;;;;;;;7.20;3.28;;;;;;;20.10;42.41;152331.53;5062217;28;20202;-70
2023/06/18 04:53:06;;;;;;;4.38;2.83;;;;;;;20.20;42.42;152357.34;5062643;28;20031;-70
2023/06/18 04:55:32;;;;;;;8.45;2.95;;;;;;;20.21;41.60;152358.63;5062346;28;20052;-68
2023/06/18 04:57:58;;;;;;;7.40;3.00;;;;;;;20.27;41.81;152375.44;5061226;28;20369;-69
2023/06/18 05:00:23;;;;;;;7.22;3.33;;;;;;;20.38;41.19;152401.25;5062338;28;20021;-69
2023/06/18 05:02:49;;;;;;;9.73;3.50;;;;;;;20.63;41.48;152464.56;5062287;28;20020;-69
2023/06/18 05:05:17;;;;;;;5.75;3.20;;;;;;;20.60;40.12;152458.09;5062388;28;20063;-70
2023/06/18 05:07:43;;;;;;;5.10;3.45;;;;;;;20.78;40.50;152502.03;5061952;28;20112;-71
2023/06/18 05:10:09;;;;;;;5.00;3.00;;;;;;;20.89;40.58;152529.19;5062517;28;20041;-68
2023/06/18 05:12:35;;;;;;;5.03;3.13;;;;;;;20.85;39.79;152520.19;5045759;28;20219;-68
2023/06/18 05:15:01;;;;;;;5.22;2.80;;;;;;;21.03;40.35;152566.69;5042690;28;20026;-70
2023/06/18 05:17:27;;;;;;;6.75;3.00;;;;;;;21.17;40.36;152600.28;5055752;28;20055;-70
2023/06/18 05:19:53;;;;;;;8.23;3.30;;;;;;;21.23;39.88;152615.75;5065030;28;20167;-69
2023/06/18 05:22:18;;;;;;;6.30;3.55;;;;;;;21.14;38.88;152593.78;5065640;28;20029;-69
2023/06/18 05:24:45;;;;;;;5.78;3.25;;;;;;;21.22;38.63;152613.22;5065496;28;20044;-69
2023/06/18 05:27:10;;;;;;;5.13;3.05;;;;;;;21.11;38.77;152584.78;5065574;28;20059;-69
2023/06/18 05:29:36;;;;;;;5.60;3.20;;;;;;;21.23;38.54;152615.75;5065576;28;20028;-68
2023/06/18 05:32:02;;;;;;;3.67;2.80;;;;;;;21.35;38.22;152645.50;5066113;28;20032;-70
2023/06/18 05:34:27;;;;;;;7.38;3.05;;;;;;;21.29;37.83;152631.28;5064419;28;20020;-69
2023/06/18 05:36:53;;;;;;;5.45;3.20;;;;;;;21.50;38.54;152684.25;5065478;28;20167;-69
2023/06/18 05:39:18;;;;;;;4.80;3.20;;;;;;;21.54;38.78;152694.63;5065650;28;20051;-70
2023/06/18 05:41:44;;;;;;;4.22;2.78;;;;;;;21.48;37.53;152679.09;5065622;28;20336;-68
2023/06/18 05:44:09;;;;;;;8.80;3.38;;;;;;;21.68;38.25;152728.28;5065761;28;20021;-70
2023/06/18 05:46:35;;;;;;;8.57;3.05;;;;;;;21.60;37.67;152708.88;5065449;28;20029;-70
2023/06/18 05:49:00;;;;;;;6.78;3.38;;;;;;;21.59;37.36;152706.31;5065286;28;20159;-68
2023/06/18 05:51:26;;;;;;;7.72;3.33;;;;;;;21.71;37.79;152736.03;5065166;28;20053;-70
2023/06/18 05:53:52;;;;;;;5.93;3.03;;;;;;;21.62;37.17;152712.72;5065268;28;20040;-70
2023/06/18 05:56:17;;;;;;;4.57;3.10;;;;;;;21.63;37.58;152715.34;5064966;28;20044;-69
2023/06/18 05:58:43;;;;;;;7.15;3.40;;;;;;;21.83;37.71;152767.06;5065225;28;20059;-70
2023/06/18 06:01:08;;;;;;;3.90;2.60;;;;;;;22.00;37.93;152808.41;5064066;28;20067;-70
2023/06/18 06:03:35;;;;;;;6.20;3.42;;;;;;;21.84;36.28;152769.63;5065142;28;20090;-70
2023/06/18 06:06:02;;;;;;;7.82;3.47;;;;;;;22.14;36.64;152844.59;5063751;28;20033;-69
2023/06/18 06:08:28;;;;;;;5.63;3.03;;;;;;;22.21;36.59;152861.44;5064822;28;20090;-69
2023/06/18 06:10:53;;;;;;;6.95;3.20;;;;;;;22.38;36.73;152904.16;5060403;28;20065;-69
2023/06/18 06:13:19;;;;;;;5.22;3.00;;;;;;;22.16;35.65;152848.47;5048938;28;20078;-70
2023/06/18 06:15:45;;;;;;;4.60;2.67;;;;;;;22.15;36.03;152847.22;5064805;28;20092;-70
2023/06/18 06:18:10;;;;;;;6.95;3.58;;;;;;;22.38;36.57;152905.44;5064578;28;20360;-71
2023/06/18 06:20:36;;;;;;;5.68;2.92;;;;;;;22.12;35.88;152838.13;5064862;28;20202;-70
2023/06/18 06:23:01;;;;;;;5.22;3.10;;;;;;;22.19;35.26;152857.56;5064626;28;20043;-71
2023/06/18 06:25:27;;;;;;;5.03;3.17;;;;;;;22.21;37.21;152862.72;5064677;28;20025;-70
2023/06/18 06:27:52;;;;;;;4.70;3.15;;;;;;;22.44;35.83;152919.66;5063594;28;20035;-69
2023/06/18 06:30:18;;;;;;;4.88;3.40;;;;;;;22.21;35.66;152862.72;5061440;28;20032;-69
2023/06/18 06:32:43;;;;;;;9.43;3.92;;;;;;;22.24;35.64;152870.47;5060999;28;20032;-69
2023/06/18 06:35:09;;;;;;;4.32;3.30;;;;;;;21.87;34.69;152777.38;5064679;28;20025;-68
2023/06/18 06:37:35;;;;;;;6.38;3.40;;;;;;;21.98;35.52;152803.25;5064175;28;20025;-70
2023/06/18 06:40:01;;;;;;;8.23;3.85;;;;;;;22.10;35.06;152834.25;5064306;28;20025;-69
2023/06/18 06:42:27;;;;;;;5.90;3.60;;;;;;;22.26;35.39;152873.06;5064503;28;20017;-69
2023/06/18 06:44:52;;;;;;;7.43;3.33;;;;;;;22.34;35.54;152893.81;5064188;28;20036;-69
2023/06/18 06:47:18;;;;;;;5.68;3.38;;;;;;;22.35;35.49;152896.41;5064411;28;20039;-69
2023/06/18 06:49:45;;;;;;;7.38;3.67;;;;;;;22.55;34.83;152948.13;5064134;28;20100;-70
2023/06/18 06:52:11;;;;;;;6.10;3.10;;;;;;;22.28;34.95;152878.25;5064528;28;20029;-69
2023/06/18 06:54:37;;;;;;;5.78;3.38;;;;;;;22.47;35.07;152926.13;5064031;28;20043;-70
2023/06/18 06:57:02;;;;;;;8.50;4.22;;;;;;;22.54;35.53;152944.25;5063910;28;20302;-69
2023/06/18 06:59:28;;;;;;;4.75;3.28;;;;;;;22.60;34.45;152958.47;5062802;28;20087;-70
2023/06/18 07:01:54;;;;;;;4.97;3.25;;;;;;;22.75;34.13;152998.56;5064314;28;20033;-70
2023/06/18 07:04:19;;;;;;;5.20;3.30;;;;;;;22.56;33.91;152950.72;5062764;28;20198;-70
2023/06/18 07:06:45;;;;;;;6.72;3.70;;;;;;;22.66;34.82;152973.97;5063791;28;20045;-71
2023/06/18 07:09:10;;;;;;;5.78;2.85;;;;;;;22.78;34.79;153005.03;5064115;28;20044;-71
2023/06/18 07:11:40;;;;;;;6.32;3.70;;;;;;;;;;5063741;28;20206;-70
2023/06/18 07:14:06;;;;;;;11.10;8.30;;;;;;;23.10;34.90;153086.56;5063859;28;20040;-70
2023/06/18 07:16:32;;;;;;;8.02;5.32;;;;;;;23.24;34.67;153121.53;5063857;28;20068;-71
2023/06/18 07:18:57;;;;;;;5.38;3.47;;;;;;;22.96;33.88;153049.00;5063843;28;20016;-69
2023/06/18 07:21:23;;;;;;;4.63;3.13;;;;;;;22.51;34.32;152936.50;5063871;28;20252;-68
2023/06/18 07:23:48;;;;;;;7.00;3.60;;;;;;;22.50;34.31;152935.22;5063687;28;20222;-68
2023/06/18 07:26:14;;;;;;;5.68;3.30;;;;;;;22.90;34.78;153034.78;5063644;28;20028;-69
2023/06/18 07:28:39;;;;;;;4.60;3.10;;;;;;;22.55;34.95;152946.84;5063426;28;20036;-69
2023/06/18 07:31:05;;;;;;;10.63;3.13;;;;;;;22.72;34.27;152989.53;5063621;28;20205;-68
2023/06/18 07:33:31;;;;;;;5.28;3.50;;;;;;;22.87;34.30;153028.34;5063310;28;20044;-68
2023/06/18 07:35:56;;;;;;;4.70;3.13;;;;;;;23.19;34.88;153107.31;5063638;28;20033;-69
2023/06/18 07:38:22;;;;;;;8.02;4.65;;;;;;;23.33;34.35;153142.22;5063252;28;20040;-69
2023/06/18 07:40:48;;;;;;;5.20;3.30;;;;;;;23.13;33.85;153093.09;5063095;28;20035;-68
2023/06/18 07:43:14;;;;;;;5.35;3.22;;;;;;;23.16;33.63;153100.84;5061100;28;20036;-69
2023/06/18 07:45:40;;;;;;;6.15;3.70;;;;;;;22.88;33.61;153030.91;5063374;28;20021;-69
2023/06/18 07:48:07;;;;;;;7.63;3.10;;;;;;;22.87;33.31;153028.34;5063009;28;20198;-69
2023/06/18 07:50:33;;;;;;;5.22;3.40;;;;;;;23.09;33.55;153083.94;5063172;28;20102;-70
2023/06/18 07:52:59;;;;;;;7.30;3.85;;;;;;;23.29;33.90;153133.19;5063532;28;20024;-70
2023/06/18 07:55:24;;;;;;;4.95;3.22;;;;;;;23.39;32.99;153157.78;5063194;28;20024;-69
2023/06/18 07:57:50;;;;;;;6.80;3.08;;;;;;;23.13;33.19;153091.75;5063196;28;20020;-70
2023/06/18 08:00:15;;;;;;;7.32;3.20;;;;;;;23.43;33.66;153169.41;5063358;28;20025;-70
2023/06/18 08:02:41;;;;;;;5.03;4.05;;;;;;;23.60;34.55;153212.13;5062750;28;20025;-70
2023/06/18 08:05:07;;;;;;;4.28;3.50;;;;;;;23.81;33.90;153263.88;5061777;28;20028;-71
2023/06/18 08:07:32;;;;;;;6.65;3.53;;;;;;;23.89;33.40;153284.63;5045090;28;20047;-70
2023/06/18 08:09:58;;;;;;;5.78;3.42;;;;;;;23.79;32.41;153258.72;5063167;28;20059;-68
2023/06/18 08:12:23;;;;;;;7.38;3.58;;;;;;;23.57;33.35;153204.38;5063021;28;20029;-69
2023/06/18 08:14:49;;;;;;;6.40;3.60;;;;;;;23.16;31.65;153100.84;5063314;28;20025;-69
2023/06/18 08:17:17;;;;;;;3.85;3.20;;;;;;;23.63;32.51;153218.59;5063050;28;20025;-69
2023/06/18 08:19:45;;;;;;;4.30;3.47;;;;;;;23.85;32.73;153272.94;5063287;28;20032;-70
2023/06/18 08:22:17;;;;;;;4.38;3.22;;;;;;;23.98;32.55;153306.66;5063345;28;20093;-68
2023/06/18 08:24:43;;;;;;;8.07;3.78;;;;;;;23.70;32.45;153235.38;5063100;28;20092;-71
2023/06/18 08:27:09;;;;;;;4.75;3.20;;;;;;;23.68;31.85;153230.25;5062954;28;20115;-70
2023/06/18 08:29:35;;;;;;;6.25;3.53;;;;;;;23.72;32.44;153240.59;5062441;28;20388;-70
2023/06/18 08:32:04;;;;;;;7.70;4.15;;;;;;;23.68;32.32;153231.50;5062912;28;20040;-70
2023/06/18 08:34:42;;;;;;;7.20;3.35;;;;;;;23.63;32.97;153217.28;5062585;28;20087;-71
2023/06/18 08:37:08;;;;;;;11.20;4.15;;;;;;;24.03;32.69;153318.28;5061058;28;20033;-70
2023/06/18 08:39:33;;;;;;;6.70;4.18;;;;;;;24.26;32.09;153377.84;5061992;28;20048;-70
2023/06/18 08:42:00;;;;;;;16.60;9.90;;;;;;;24.24;31.93;153372.69;5062638;28;20062;-72
2023/06/18 08:44:27;;;;;;;6.30;3.92;;;;;;;24.22;30.98;153367.50;5062490;28;20040;-71
2023/06/18 08:47:00;;;;;;;5.18;3.78;;;;;;;24.21;31.03;153363.59;5062717;28;20033;-71
2023/06/18 08:49:26;;;;;;;7.85;3.45;;;;;;;24.21;31.17;153363.59;5061199;28;20021;-70
2023/06/18 08:51:54;;;;;;;6.82;3.97;;;;;;;24.10;31.52;153337.72;5062554;28;20024;-68
2023/06/18 08:54:22;;;;;;;4.00;3.42;;;;;;;24.36;32.46;153401.19;5064466;28;20392;-69
2023/06/18 08:57:02;;;;;;;5.25;3.30;;;;;;;24.09;31.72;153335.13;5065937;28;20040;-68
2023/06/18 08:59:28;;;;;;;5.63;3.40;;;;;;;24.36;32.31;153401.19;5066244;28;20202;-69
2023/06/18 09:01:53;;;;;;;6.13;3.78;;;;;;;24.09;31.67;153333.84;5065417;28;20028;-69
2023/06/18 09:04:21;;;;;;;6.03;4.18;;;;;;;24.45;32.46;153425.75;5064789;28;20092;-70
2023/06/18 09:06:48;;;;;;;7.38;3.20;;;;;;;24.73;32.63;153495.75;5047978;28;20209;-70
2023/06/18 09:09:13;;;;;;;11.10;5.43;;;;;;;24.90;32.27;153537.22;5066108;28;20045;-69
2023/06/18 09:11:39;;;;;;;7.47;4.45;;;;;;;24.69;31.75;153484.09;5065818;28;20051;-69
2023/06/18 09:14:06;;;;;;;5.47;3.72;;;;;;;24.46;30.97;153428.34;5066346;28;20031;-69
2023/06/18 09:16:31;;;;;;;5.97;3.80;;;;;;;24.32;31.48;153390.81;5066016;28;20210;-69
2023/06/18 09:18:57;;;;;;;6.03;3.47;;;;;;;24.22;31.35;153367.50;5066103;28;20017;-68
2023/06/18 09:21:40;;;;;;;5.57;3.67;;;;;;;24.06;31.21;153327.38;5066134;28;20033;-70
2023/06/18 09:24:14;;;;;;;6.43;3.60;;;;;;;24.16;32.07;153351.97;5064878;28;20043;-71
2023/06/18 09:26:40;;;;;;;4.25;3.60;;;;;;;24.13;32.16;153345.50;5065949;28;20314;-73
2023/06/18 09:29:06;;;;;;;5.78;3.13;;;;;;;24.00;31.67;153310.53;5065951;28;20037;-70
2023/06/18 09:31:33;;;;;;;4.57;3.40;;;;;;;24.13;31.36;153345.50;5064498;28;20075;-70
2023/06/18 09:34:11;;;;;;;5.00;3.45;;;;;;;24.29;31.97;153385.63;5066132;28;20320;-71
2023/06/18 09:36:39;;;;;;;5.43;3.97;;;;;;;24.52;31.66;153441.31;5045608;28;20040;-70
2023/06/18 09:39:16;;;;;;;12.85;3.90;;;;;;;24.43;31.65;153419.31;5061981;28;20225;-69
2023/06/18 09:41:43;;;;;;;6.63;3.65;;;;;;;24.28;30.50;153383.06;5051351;28;20175;-70
2023/06/18 09:44:09;;;;;;;4.82;3.33;;;;;;;24.61;31.80;153465.97;5054286;28;20031;-70
2023/06/18 09:46:35;;;;;;;7.00;4.28;;;;;;;24.59;31.39;153460.72;5065716;28;20036;-70
2023/06/18 09:49:01;;;;;;;4.07;3.38;;;;;;;24.69;30.96;153484.09;5065894;28;20085;-70
2023/06/18 09:51:26;;;;;;;5.57;3.25;;;;;;;24.60;31.18;153462.09;5067082;28;20087;-70
2023/06/18 09:53:57;;;;;;;5.65;3.65;;;;;;;24.90;31.63;153538.50;5065875;28;20321;-70
2023/06/18 09:56:23;;;;;;;8.87;3.80;;;;;;;25.05;31.97;153576.03;5065651;28;20029;-70
2023/06/18 09:58:50;;;;;;;6.00;3.50;;;;;;;25.18;31.51;153608.44;5065214;28;20039;-71
2023/06/18 10:01:17;;;;;;;4.13;3.50;;;;;;;24.91;30.41;153539.78;5065318;28;20056;-70
2023/06/18 10:03:44;;;;;;;5.32;3.63;;;;;;;24.75;31.27;153499.63;5064201;28;20057;-70
2023/06/18 10:06:23;;;;;;;7.95;4.10;;;;;;;24.71;31.49;153490.59;5064937;28;20103;-70
2023/06/18 10:08:50;;;;;;;6.35;3.85;;;;;;;24.66;31.48;153476.34;5065312;28;20073;-71
2023/06/18 10:11:17;;;;;;;7.30;3.95;;;;;;;24.50;31.51;153437.44;5065174;28;20493;-70
2023/06/18 10:13:49;;;;;;;5.30;3.85;;;;;;;24.66;31.65;153477.63;5060611;28;20033;-70
2023/06/18 10:16:19;;;;;;;7.93;3.65;;;;;;;24.82;31.70;153517.75;5046221;28;20036;-71
2023/06/18 10:18:57;;;;;;;16.05;3.88;;;;;;;25.04;31.74;153572.16;5065014;28;20074;-71
2023/06/18 10:21:24;;;;;;;5.18;4.00;;;;;;;24.80;31.34;153513.88;5065043;28;20025;-71
2023/06/18 10:23:55;;;;;;;5.22;3.75;;;;;;;24.50;31.07;153436.13;5065144;28;20059;-69
2023/06/18 10:26:21;;;;;;;6.88;5.28;;;;;;;24.65;31.75;153475.03;5065255;28;20024;-69
2023/06/18 10:28:51;;;;;;;7.60;3.53;;;;;;;24.28;31.53;153381.75;5065033;28;20233;-71
2023/06/18 10:31:19;;;;;;;6.88;3.40;;;;;;;24.24;31.78;153371.38;5066007;28;20024;-71
2023/06/18 10:33:46;;;;;;;4.93;3.53;;;;;;;24.21;31.34;153364.88;5064750;28;20325;-70
2023/06/18 10:36:13;;;;;;;4.78;3.65;;;;;;;24.27;31.54;153379.13;5065015;28;20029;-70
2023/06/18 10:38:39;;;;;;;5.30;3.65;;;;;;;24.36;32.53;153402.47;5064650;28;20095;-71
2023/06/18 10:41:10;;;;;;;5.53;3.47;;;;;;;24.40;31.60;153412.81;5064560;28;20025;-71
2023/06/18 10:43:40;;;;;;;6.57;3.58;;;;;;;24.60;32.14;153463.38;5064471;28;20021;-69
2023/06/18 10:46:13;;;;;;;7.15;4.25;;;;;;;24.72;31.63;153493.16;5064513;28;20167;-70
2023/06/18 10:48:40;;;;;;;8.48;3.92;;;;;;;24.63;31.28;153471.13;5044372;28;20034;-70
2023/06/18 10:51:18;;;;;;;9.30;4.10;;;;;;;24.88;31.68;153533.28;5060334;28;20244;-70
2023/06/18 10:53:46;;;;;;;6.15;4.13;;;;;;;24.89;31.18;153535.91;5064536;28;20505;-71
2023/06/18 10:56:15;;;;;;;5.22;3.78;;;;;;;24.71;31.25;153489.25;5064490;28;20308;-69
2023/06/18 10:58:42;;;;;;;4.40;3.53;;;;;;;24.76;31.47;153502.25;5063941;28;20029;-70
2023/06/18 11:01:26;;;;;;;6.85;3.35;;;;;;;24.81;31.58;153515.16;5064257;28;20028;-70
2023/06/18 11:04:05;;;;;;;9.00;3.88;;;;;;;24.82;31.64;153517.75;5044569;28;20067;-70
2023/06/18 11:06:31;;;;;;;5.07;3.70;;;;;;;24.46;31.56;153427.06;5061935;28;20095;-70
2023/06/18 11:08:57;;;;;;;7.72;3.80;;;;;;;24.43;31.47;153419.31;5063898;28;20439;-70
2023/06/18 11:11:24;;;;;;;7.47;4.05;;;;;;;24.56;31.87;153452.97;5063798;28;20032;-69
2023/06/18 11:13:53;;;;;;;5.55;3.53;;;;;;;24.77;32.23;153504.78;5064079;28;20096;-70
2023/06/18 11:16:20;;;;;;;4.43;3.72;;;;;;;24.86;31.62;153528.13;5063008;28;20029;-70
2023/06/18 11:18:46;;;;;;;5.57;3.75;;;;;;;25.11;31.68;153590.28;5063775;28;20033;-70
2023/06/18 11:21:20;;;;;;;5.38;4.05;;;;;;;24.98;30.78;153559.25;5064002;28;20017;-70
2023/06/18 11:23:47;;;;;;;5.75;3.55;;;;;;;25.25;31.79;153626.56;5063644;28;20025;-72